Time;durP1;ratioP1;P1;durP2;ratioP2;P2;SDS_P1;SDS_P2;PMS_P1;PMS_P2;Temp;Humidity;BMP_temperature;BMP_pressure;BME280_temperature;BME280_humidity;BME280_pressure;Samples;Min_cycle;Max_cycle;Signal;HPM_P1;HPM_P2
2022/03/13 00:02:17;;;;;;;1.30;1.25;;;;;;;-1.27;42.92;101036.94;4499937;31;34165;-67
2022/03/13 00:04:49;;;;;;;30.10;14.07;;;;;;;-0.84;42.51;101026.81;4500727;31;33807;-68
2022/03/13 00:07:18;;;;;;;4.03;3.70;;;;;;;-1.48;44.71;101033.56;4500439;31;33565;-71
2022/03/13 00:09:50;;;;;;;0.90;0.90;;;;;;;-1.03;43.11;101027.66;4500725;31;33748;-71
2022/03/13 00:12:24;;;;;;;1.92;1.77;;;;;;;-0.80;43.59;101025.50;4500508;31;35176;-71
2022/03/13 00:14:55;;;;;;;12.43;5.82;;;;;;;-0.65;43.19;101021.44;4500728;31;33668;-67
2022/03/13 00:17:29;;;;;;;0.85;0.85;;;;;;;-1.12;45.54;101025.88;4502097;31;33603;-71
2022/03/13 00:20:02;;;;;;;1.73;1.60;;;;;;;-1.45;45.15;101019.97;4502556;31;34518;-71
2022/03/13 00:22:32;;;;;;;1.17;1.17;;;;;;;-1.34;44.97;101014.53;4502754;31;34227;-70
2022/03/13 00:25:01;;;;;;;0.50;0.50;;;;;;;-0.94;44.79;101020.66;4502507;31;33831;-68
2022/03/13 00:27:34;;;;;;;40.08;15.88;;;;;;;-0.79;44.26;101015.72;4502544;31;34198;-71
2022/03/13 00:30:05;;;;;;;2.40;2.20;;;;;;;-0.91;42.61;101009.69;4501771;31;34194;-71
2022/03/13 00:32:32;;;;;;;0.80;0.80;;;;;;;-1.42;44.98;101010.88;4502323;31;34203;-67
2022/03/13 00:35:00;;;;;;;1.20;1.08;;;;;;;-1.47;45.38;101013.94;4502404;31;33656;-68
2022/03/13 00:37:28;;;;;;;0.60;0.60;;;;;;;-1.36;44.85;101007.63;4502588;31;33075;-71
2022/03/13 00:39:56;;;;;;;0.90;0.90;;;;;;;-1.08;43.57;101014.78;4502304;31;34836;-71
2022/03/13 00:42:24;;;;;;;1.05;1.00;;;;;;;-1.40;44.48;101011.53;4502541;31;34198;-70
2022/03/13 00:44:51;;;;;;;2.83;1.67;;;;;;;-1.20;45.11;101013.25;4502346;31;34400;-71
2022/03/13 00:47:20;;;;;;;0.88;0.88;;;;;;;-1.05;43.19;101009.16;4502293;31;34123;-72
2022/03/13 00:49:48;;;;;;;1.17;1.15;;;;;;;-1.07;44.15;101013.78;4502322;31;33911;-71
2022/03/13 00:52:17;;;;;;;7.28;3.70;;;;;;;-1.11;42.79;101009.72;4502534;31;34968;-68
2022/03/13 00:54:44;;;;;;;0.60;0.60;;;;;;;-1.12;44.12;101009.87;4502147;31;33877;-71
2022/03/13 00:57:12;;;;;;;1.05;0.62;;;;;;;-1.78;45.79;101018.53;4502268;31;33518;-71
2022/03/13 00:59:40;;;;;;;1.48;1.17;;;;;;;-1.65;45.45;101016.44;4502286;31;34024;-71
2022/03/13 01:02:10;;;;;;;0.60;0.60;;;;;;;-1.24;44.55;101011.84;4502101;31;35410;-71
2022/03/13 01:04:45;;;;;;;2.83;2.40;;;;;;;-1.15;42.79;101008.31;4502422;31;34697;-71
2022/03/13 01:07:14;;;;;;;7.32;6.57;;;;;;;-1.26;42.82;101009.31;4502048;31;34164;-71
2022/03/13 01:09:41;;;;;;;25.83;12.75;;;;;;;-1.74;45.23;100996.84;4502243;31;33902;-71
2022/03/13 01:12:10;;;;;;;0.60;0.60;;;;;;;-1.98;45.61;100999.03;4502556;31;34111;-70
2022/03/13 01:14:37;;;;;;;0.77;0.62;;;;;;;-1.84;45.25;100995.12;4501996;31;34585;-71
2022/03/13 01:17:07;;;;;;;0.60;0.60;;;;;;;-2.25;46.01;100986.34;4502394;31;33527;-71
2022/03/13 01:19:35;;;;;;;1.27;1.17;;;;;;;-2.13;46.07;100995.91;4502425;31;34580;-71
2022/03/13 01:22:03;;;;;;;22.62;12.30;;;;;;;-1.53;45.73;100994.06;4501925;31;34196;-70
2022/03/13 01:24:43;;;;;;;1.20;0.80;;;;;;;-2.49;47.69;100985.69;4502151;31;34599;-71
2022/03/13 01:27:15;;;;;;;0.82;0.82;;;;;;;-1.93;47.75;100991.47;4501699;31;34243;-71
2022/03/13 01:29:44;;;;;;;0.50;0.50;;;;;;;-1.78;47.07;100992.75;4502473;31;33925;-71
2022/03/13 01:32:15;;;;;;;3.70;2.83;;;;;;;-1.78;48.59;100994.59;4502131;31;34213;-71
2022/03/13 01:34:54;;;;;;;0.60;0.60;;;;;;;-1.82;47.78;100996.66;4502245;31;33895;-71
2022/03/13 01:37:28;;;;;;;0.60;0.60;;;;;;;-2.40;47.67;100992.03;4502269;31;32923;-70
2022/03/13 01:39:58;;;;;;;1.50;1.08;;;;;;;-2.16;47.23;100990.84;4501662;31;34653;-71
2022/03/13 01:42:26;;;;;;;0.77;0.77;;;;;;;-1.76;46.93;100988.16;4502127;31;34138;-70
2022/03/13 01:44:54;;;;;;;0.60;0.60;;;;;;;-2.03;46.32;100991.47;4502211;31;33990;-71
2022/03/13 01:47:24;;;;;;;1.17;1.08;;;;;;;-1.95;45.98;100988.12;4502109;31;33571;-71
2022/03/13 01:49:52;;;;;;;0.60;0.60;;;;;;;-1.59;45.75;100983.97;4502067;31;33912;-71
2022/03/13 01:52:27;;;;;;;3.92;1.65;;;;;;;-1.52;46.42;100979.75;4501871;31;33915;-69
2022/03/13 01:54:56;;;;;;;1.00;0.98;;;;;;;-2.19;47.80;100973.38;4501903;31;34614;-71
2022/03/13 01:57:24;;;;;;;1.05;0.90;;;;;;;-2.30;47.61;100970.81;4502044;31;33279;-71
2022/03/13 01:59:56;;;;;;;2.70;0.93;;;;;;;-2.30;47.74;100986.75;4501715;31;34782;-70
2022/03/13 02:02:26;;;;;;;1.12;1.08;;;;;;;-2.31;49.49;100977.97;4501908;31;34276;-71
2022/03/13 02:04:55;;;;;;;1.35;1.25;;;;;;;-1.94;48.60;100982.66;4501575;31;34635;-71
2022/03/13 02:07:23;;;;;;;25.30;12.80;;;;;;;-1.73;48.18;100979.91;4501599;31;33195;-70
2022/03/13 02:09:51;;;;;;;6.12;4.62;;;;;;;-1.54;45.51;100968.41;4501883;31;34851;-70
2022/03/13 02:12:19;;;;;;;7.12;4.40;;;;;;;-1.65;45.47;100957.91;4501898;31;34894;-71
2022/03/13 02:14:48;;;;;;;0.50;0.50;;;;;;;-2.42;47.75;100959.44;4501743;31;33656;-71
2022/03/13 02:17:33;;;;;;;0.57;0.57;;;;;;;-2.40;48.13;100957.47;4501691;31;34115;-71
2022/03/13 02:20:02;;;;;;;1.98;1.87;;;;;;;-2.29;47.52;100960.06;4501550;31;33967;-71
2022/03/13 02:22:30;;;;;;;0.80;0.80;;;;;;;-2.37;48.99;100956.41;4501719;31;35036;-69
2022/03/13 02:24:58;;;;;;;1.65;1.50;;;;;;;-2.62;48.00;100960.34;4501855;31;33847;-71
2022/03/13 02:27:29;;;;;;;1.37;1.30;;;;;;;-2.41;48.21;100962.94;4501609;31;34476;-71
2022/03/13 02:29:57;;;;;;;0.60;0.60;;;;;;;-2.02;47.74;100963.88;4501719;31;34065;-71
2022/03/13 02:32:24;;;;;;;3.75;3.42;;;;;;;-2.23;46.61;100956.00;4501646;31;34008;-68
2022/03/13 02:34:54;;;;;;;0.57;0.57;;;;;;;-2.83;47.72;100958.59;4501740;31;34224;-70
2022/03/13 02:37:39;;;;;;;0.55;0.55;;;;;;;-2.38;48.53;100960.00;4501692;31;33216;-69
2022/03/13 02:40:19;;;;;;;0.50;0.50;;;;;;;-2.27;48.10;100957.25;4500499;31;33733;-69
2022/03/13 02:42:46;;;;;;;0.77;0.77;;;;;;;-2.72;48.27;100958.50;4501662;31;34204;-71
2022/03/13 02:45:33;;;;;;;3.40;3.15;;;;;;;-2.19;47.73;100960.06;4501442;31;33846;-72
2022/03/13 02:48:02;;;;;;;2.15;2.05;;;;;;;-2.36;47.36;100955.41;4501656;31;34176;-69
2022/03/13 02:50:30;;;;;;;0.50;0.50;;;;;;;-2.13;47.44;100953.38;4501591;31;33689;-71
2022/03/13 02:52:57;;;;;;;0.55;0.55;;;;;;;-2.19;48.23;100952.09;4501559;31;35198;-71
2022/03/13 02:55:25;;;;;;;2.25;2.05;;;;;;;-2.16;46.56;100946.53;4501467;31;33767;-71
2022/03/13 02:57:53;;;;;;;0.50;0.50;;;;;;;-2.23;46.98;100953.34;4501488;31;33323;-70
2022/03/13 03:00:23;;;;;;;0.80;0.80;;;;;;;-2.08;47.76;100948.47;4501503;31;34716;-67
2022/03/13 03:02:51;;;;;;;0.98;0.98;;;;;;;-2.50;48.54;100946.00;4500281;31;34286;-70
2022/03/13 03:05:19;;;;;;;1.40;0.75;;;;;;;-2.56;48.29;100951.84;4501247;31;34508;-70
2022/03/13 03:07:47;;;;;;;1.35;0.85;;;;;;;-2.40;47.76;100944.19;4501464;31;34330;-71
2022/03/13 03:10:14;;;;;;;0.62;0.62;;;;;;;-2.32;46.56;100940.88;4501846;31;33896;-71
2022/03/13 03:12:42;;;;;;;1.80;1.70;;;;;;;-2.71;46.85;100940.72;4501622;31;34086;-68
2022/03/13 03:15:10;;;;;;;0.60;0.60;;;;;;;-2.27;45.69;100949.25;4501752;31;33727;-71
2022/03/13 03:17:38;;;;;;;0.55;0.55;;;;;;;-2.23;45.34;100949.84;4501209;31;33199;-67
2022/03/13 03:20:06;;;;;;;0.70;0.70;;;;;;;-2.38;47.46;100938.75;4501452;31;34720;-71
2022/03/13 03:22:33;;;;;;;2.87;2.67;;;;;;;-2.96;47.97;100942.00;4501435;31;34288;-71
2022/03/13 03:25:01;;;;;;;1.40;1.35;;;;;;;-2.94;48.17;100940.06;4501115;31;33031;-68
2022/03/13 03:27:31;;;;;;;0.80;0.80;;;;;;;-2.35;46.39;100944.66;4501403;31;33438;-70
2022/03/13 03:29:59;;;;;;;1.90;1.77;;;;;;;-3.16;47.84;100938.41;4501204;31;34558;-68
2022/03/13 03:32:27;;;;;;;3.03;1.35;;;;;;;-2.60;46.86;100937.97;4501009;31;33965;-71
2022/03/13 03:34:54;;;;;;;2.05;1.35;;;;;;;-2.83;48.32;100931.16;4501301;31;33905;-71
2022/03/13 03:37:22;;;;;;;1.25;1.15;;;;;;;-2.55;48.32;100929.59;4501159;31;33322;-70
2022/03/13 03:39:49;;;;;;;3.25;2.12;;;;;;;-2.64;48.11;100933.06;4500843;31;34655;-71
2022/03/13 03:42:17;;;;;;;7.68;5.57;;;;;;;-2.56;49.30;100926.09;4501082;31;35027;-69
2022/03/13 03:44:44;;;;;;;1.10;1.00;;;;;;;-2.62;47.88;100929.28;4501236;31;33860;-70
2022/03/13 03:47:12;;;;;;;6.90;1.52;;;;;;;-2.87;48.45;100924.44;4500853;31;34236;-68
2022/03/13 03:49:39;;;;;;;6.47;3.60;;;;;;;-3.17;48.12;100924.28;4501018;31;33779;-70
2022/03/13 03:52:12;;;;;;;0.60;0.60;;;;;;;-2.81;49.14;100916.78;4501214;31;34301;-69
2022/03/13 03:54:40;;;;;;;0.75;0.75;;;;;;;-2.93;48.48;100916.03;4500673;31;33991;-67
2022/03/13 03:57:07;;;;;;;0.60;0.60;;;;;;;-3.19;50.37;100923.59;4500858;31;33312;-70
2022/03/13 03:59:35;;;;;;;3.55;2.37;;;;;;;-3.14;49.59;100917.88;4500835;31;34014;-71
2022/03/13 04:02:03;;;;;;;0.60;0.60;;;;;;;-2.91;48.99;100918.56;4500560;31;35278;-70
2022/03/13 04:04:31;;;;;;;0.50;0.50;;;;;;;-2.81;47.11;100922.09;4500870;31;34606;-68
2022/03/13 04:06:58;;;;;;;0.55;0.55;;;;;;;-3.15;47.72;100926.81;4500585;31;32998;-71
2022/03/13 04:09:26;;;;;;;0.77;0.77;;;;;;;-2.47;46.69;100929.78;4500509;31;34740;-71
2022/03/13 04:11:53;;;;;;;0.60;0.60;;;;;;;-2.34;46.60;100929.53;4500611;31;34235;-70
2022/03/13 04:14:21;;;;;;;1.27;1.00;;;;;;;-2.91;49.54;100927.38;4501044;31;33985;-71
2022/03/13 04:16:49;;;;;;;5.22;2.85;;;;;;;-3.12;50.23;100922.09;4500850;31;33518;-71
2022/03/13 04:19:17;;;;;;;4.78;3.20;;;;;;;-3.24;49.90;100912.53;4500509;31;34073;-72
2022/03/13 04:21:44;;;;;;;0.70;0.70;;;;;;;-2.62;48.51;100908.03;4500826;31;34247;-72
2022/03/13 04:24:12;;;;;;;0.50;0.50;;;;;;;-3.07;49.49;100918.19;4500364;31;33976;-71
2022/03/13 04:26:40;;;;;;;2.12;1.95;;;;;;;-3.23;49.75;100913.38;4500483;31;33560;-72
2022/03/13 04:29:09;;;;;;;17.87;9.80;;;;;;;-3.61;49.80;100912.94;4500828;31;33865;-71
2022/03/13 04:31:42;;;;;;;1.45;1.37;;;;;;;-3.82;50.58;100917.38;4500257;31;34390;-70
2022/03/13 04:34:16;;;;;;;0.80;0.80;;;;;;;-3.59;49.89;100918.97;4500388;31;34538;-72
2022/03/13 04:36:44;;;;;;;3.72;3.40;;;;;;;-2.87;50.23;100914.69;4500008;31;33457;-71
2022/03/13 04:39:11;;;;;;;0.70;0.70;;;;;;;-2.52;47.25;100908.94;4499211;31;33668;-72
2022/03/13 04:41:39;;;;;;;0.60;0.60;;;;;;;-2.41;47.61;100907.16;4500332;31;34258;-72
2022/03/13 04:44:08;;;;;;;0.60;0.60;;;;;;;-2.66;47.93;100896.00;4500139;31;33991;-72
2022/03/13 04:46:35;;;;;;;0.60;0.60;;;;;;;-2.85;48.44;100896.78;4499191;31;33136;-72
2022/03/13 04:49:03;;;;;;;0.50;0.50;;;;;;;-2.87;50.58;100901.41;4500209;31;34683;-72
2022/03/13 04:51:32;;;;;;;0.60;0.60;;;;;;;-3.34;50.62;100903.66;4499917;31;35012;-72
2022/03/13 04:53:59;;;;;;;0.60;0.60;;;;;;;-3.25;50.58;100905.53;4500236;31;33861;-72
2022/03/13 04:56:27;;;;;;;1.17;1.08;;;;;;;-3.13;50.81;100904.47;4500073;31;33276;-72
2022/03/13 04:58:54;;;;;;;1.08;1.08;;;;;;;-3.03;50.27;100906.34;4500087;31;34032;-72
2022/03/13 05:01:22;;;;;;;2.60;1.87;;;;;;;-3.14;50.54;100902.78;4500005;31;34487;-69
2022/03/13 05:03:50;;;;;;;0.70;0.70;;;;;;;-2.73;50.04;100894.87;4502100;31;34770;-72
2022/03/13 05:06:17;;;;;;;0.70;0.70;;;;;;;-3.19;50.87;100893.56;4502091;31;33372;-72
2022/03/13 05:08:45;;;;;;;0.50;0.50;;;;;;;-3.07;50.63;100891.66;4502223;31;33827;-67
2022/03/13 05:11:12;;;;;;;3.03;2.78;;;;;;;-3.22;52.04;100904.41;4502292;31;34909;-72
2022/03/13 05:13:39;;;;;;;0.60;0.60;;;;;;;-3.22;51.77;100905.25;4502011;31;34685;-70
2022/03/13 05:16:12;;;;;;;0.50;0.50;;;;;;;-2.93;51.19;100913.38;4502513;31;33496;-70
2022/03/13 05:18:40;;;;;;;0.60;0.60;;;;;;;-2.56;48.84;100917.31;4502144;31;33839;-68
2022/03/13 05:21:07;;;;;;;0.55;0.55;;;;;;;-2.35;47.96;100914.56;4502923;31;35342;-69
2022/03/13 05:23:34;;;;;;;1.73;1.58;;;;;;;-2.42;47.04;100916.91;4510153;31;34652;-72
2022/03/13 05:26:02;;;;;;;0.52;0.52;;;;;;;-2.56;47.09;100919.97;4507720;31;33099;-69
2022/03/13 05:28:30;;;;;;;0.77;0.77;;;;;;;-3.01;50.14;100917.66;4507138;31;33846;-72
2022/03/13 05:30:57;;;;;;;0.60;0.60;;;;;;;-2.75;48.71;100918.06;4501922;31;33977;-72
2022/03/13 05:33:25;;;;;;;0.93;0.93;;;;;;;-2.61;49.24;100916.84;4508949;31;33797;-66
2022/03/13 05:35:52;;;;;;;0.93;0.93;;;;;;;-2.80;50.72;100912.31;4509168;31;33505;-66
2022/03/13 05:38:20;;;;;;;0.60;0.60;;;;;;;-2.49;48.36;100915.78;4514011;31;33648;-71
2022/03/13 05:40:47;;;;;;;0.60;0.60;;;;;;;-2.92;50.48;100906.25;4516686;31;33999;-67
2022/03/13 05:43:15;;;;;;;0.70;0.70;;;;;;;-2.95;50.22;100909.19;4512134;31;33821;-71
2022/03/13 05:45:48;;;;;;;0.70;0.70;;;;;;;-3.17;49.97;100916.34;4501906;31;34363;-69
2022/03/13 05:48:17;;;;;;;0.60;0.60;;;;;;;-2.42;49.58;100913.41;4501860;31;33746;-71
2022/03/13 05:50:45;;;;;;;0.60;0.60;;;;;;;-2.33;48.17;100918.78;4513357;31;34852;-71
2022/03/13 05:53:13;;;;;;;2.70;2.12;;;;;;;-2.78;48.14;100915.69;4517872;31;33701;-70
2022/03/13 05:55:41;;;;;;;0.68;0.68;;;;;;;-2.67;48.95;100915.59;4517470;31;33512;-71
2022/03/13 05:58:08;;;;;;;0.82;0.68;;;;;;;-2.83;48.32;100912.56;4517510;31;34022;-70
2022/03/13 06:00:39;;;;;;;1.92;1.83;;;;;;;-2.57;48.36;100916.47;4517791;31;34197;-74
2022/03/13 06:03:08;;;;;;;0.50;0.50;;;;;;;-2.11;47.80;100908.88;4514527;31;33887;-67
2022/03/13 06:05:35;;;;;;;1.42;0.70;;;;;;;-1.58;45.80;100924.41;4498804;31;32453;-68
2022/03/13 06:08:03;;;;;;;3.37;2.08;;;;;;;0.04;42.77;100909.91;4500589;31;33567;-70
2022/03/13 06:10:31;;;;;;;19.58;11.73;;;;;;;1.59;39.95;100911.97;4500169;31;34193;-68
2022/03/13 06:12:58;;;;;;;4.40;1.65;;;;;;;2.16;38.32;100916.62;4500488;31;34501;-69
2022/03/13 06:15:28;;;;;;;4.00;3.70;;;;;;;2.53;37.75;100926.03;4500262;31;33554;-68
2022/03/13 06:17:58;;;;;;;16.92;10.27;;;;;;;3.37;35.40;100927.44;4499825;31;33833;-70
2022/03/13 06:20:25;;;;;;;21.00;12.65;;;;;;;4.32;33.05;100918.37;4500027;31;34903;-68
2022/03/13 06:22:53;;;;;;;18.50;10.48;;;;;;;4.19;32.56;100931.53;4500112;31;34547;-67
2022/03/13 06:25:21;;;;;;;17.62;9.77;;;;;;;4.80;33.87;100929.75;4500638;31;33104;-68
2022/03/13 06:27:48;;;;;;;13.13;8.13;;;;;;;5.64;31.75;100931.38;4500451;31;33829;-68
2022/03/13 06:30:16;;;;;;;13.27;6.78;;;;;;;5.35;29.53;100924.97;4500294;31;34200;-69
2022/03/13 06:32:46;;;;;;;12.60;7.50;;;;;;;5.95;28.50;100926.59;4500670;31;33123;-69
2022/03/13 06:35:15;;;;;;;11.60;7.03;;;;;;;6.31;28.31;100928.47;4510945;31;34063;-67
2022/03/13 06:37:43;;;;;;;12.20;6.93;;;;;;;6.91;27.73;100930.84;4500455;31;34823;-66
2022/03/13 06:40:18;;;;;;;9.68;6.28;;;;;;;7.42;26.23;100937.84;4513972;31;34071;-65
2022/03/13 06:42:47;;;;;;;11.10;6.07;;;;;;;8.27;24.47;100933.84;4516178;31;33782;-64
2022/03/13 06:45:17;;;;;;;11.70;6.93;;;;;;;8.35;23.60;100938.22;4515887;31;33456;-65
2022/03/13 06:47:49;;;;;;;0.70;0.70;;;;;;;8.74;24.19;100942.88;4515741;31;33891;-63
2022/03/13 06:50:18;;;;;;;12.02;6.57;;;;;;;8.82;25.42;100939.13;4515372;31;34022;-64
2022/03/13 06:52:49;;;;;;;16.35;9.18;;;;;;;9.72;22.74;100943.97;4515816;31;34309;-65
2022/03/13 06:55:19;;;;;;;27.92;15.25;;;;;;;9.52;22.63;100942.16;4515950;31;34112;-68
2022/03/13 06:57:46;;;;;;;35.13;17.90;;;;;;;9.79;23.17;100942.91;4515773;31;33945;-67
2022/03/13 07:00:15;;;;;;;30.52;15.52;;;;;;;9.97;22.54;100942.22;4515858;31;34018;-66
2022/03/13 07:02:56;;;;;;;27.60;14.13;;;;;;;9.89;22.56;100937.03;4515816;31;34424;-66
2022/03/13 07:05:24;;;;;;;20.65;11.35;;;;;;;10.34;21.86;100944.34;4515124;31;34278;-65
2022/03/13 07:07:55;;;;;;;22.60;12.60;;;;;;;10.47;21.58;100941.56;4515552;31;34829;-66
2022/03/13 07:10:23;;;;;;;18.52;11.88;;;;;;;11.21;20.54;100942.66;4515548;31;34285;-65
2022/03/13 07:12:52;;;;;;;19.23;12.10;;;;;;;11.70;20.07;100942.75;4514648;31;34152;-66
2022/03/13 07:15:19;;;;;;;23.30;12.30;;;;;;;11.06;20.73;100934.84;4515812;31;33187;-66
2022/03/13 07:17:47;;;;;;;21.48;12.48;;;;;;;11.92;19.86;100939.59;4515102;31;33942;-66
2022/03/13 07:20:15;;;;;;;20.95;11.68;;;;;;;12.21;18.87;100944.22;4515825;31;35036;-66
2022/03/13 07:22:43;;;;;;;19.55;11.12;;;;;;;11.86;19.33;100939.41;4517038;31;33888;-66
2022/03/13 07:25:12;;;;;;;16.98;11.00;;;;;;;12.32;18.34;100939.88;4516221;31;34151;-66
2022/03/13 07:27:39;;;;;;;19.45;11.10;;;;;;;12.20;18.78;100937.16;4516890;31;33770;-66
2022/03/13 07:30:11;;;;;;;17.67;10.57;;;;;;;11.94;19.14;100943.72;4516895;31;34090;-65
2022/03/13 07:32:42;;;;;;;14.68;10.10;;;;;;;11.85;18.83;100948.63;4516743;31;33378;-65
2022/03/13 07:35:11;;;;;;;18.55;10.13;;;;;;;11.33;19.16;100945.44;4516676;31;33707;-66
2022/03/13 07:37:40;;;;;;;16.52;9.82;;;;;;;10.27;21.07;100938.94;4516342;31;33629;-66
2022/03/13 07:40:08;;;;;;;17.12;10.40;;;;;;;10.59;20.46;100938.97;4516716;31;34241;-65
2022/03/13 07:42:36;;;;;;;21.52;11.27;;;;;;;9.71;21.20;100950.47;4516881;31;33851;-65
2022/03/13 07:45:04;;;;;;;16.25;9.57;;;;;;;10.18;20.78;100951.91;4516962;31;33522;-65
2022/03/13 07:47:32;;;;;;;21.30;13.00;;;;;;;9.41;21.57;100948.25;4515343;31;34016;-67
2022/03/13 07:49:59;;;;;;;19.50;11.15;;;;;;;9.43;21.61;100941.56;4516590;31;33974;-67
2022/03/13 07:52:27;;;;;;;14.13;8.52;;;;;;;8.92;21.37;100952.25;4517052;31;33851;-67
2022/03/13 07:54:59;;;;;;;15.65;8.23;;;;;;;9.27;20.76;100946.63;4516833;31;33574;-67
2022/03/13 07:57:28;;;;;;;17.58;9.82;;;;;;;8.21;22.33;100956.28;4517085;31;33810;-67
2022/03/13 07:59:56;;;;;;;16.50;10.00;;;;;;;8.94;21.57;100953.72;4516512;31;34048;-67
2022/03/13 08:02:24;;;;;;;13.77;8.02;;;;;;;9.14;22.15;100961.81;4516668;31;34107;-67
2022/03/13 08:04:52;;;;;;;12.70;7.97;;;;;;;8.41;22.15;100956.38;4516735;31;34400;-67
2022/03/13 08:07:19;;;;;;;13.95;8.95;;;;;;;8.54;21.73;100955.56;4516044;31;34009;-67
2022/03/13 08:09:47;;;;;;;13.85;8.23;;;;;;;9.07;21.01;100952.03;4516747;31;34188;-67
2022/03/13 08:12:15;;;;;;;14.93;8.32;;;;;;;8.11;22.41;100956.66;4516689;31;34472;-67
2022/03/13 08:14:42;;;;;;;13.75;8.43;;;;;;;8.00;22.33;100951.84;4516246;31;34060;-68
2022/03/13 08:17:10;;;;;;;15.20;8.65;;;;;;;8.49;22.78;100953.47;4516498;31;34778;-67
2022/03/13 08:19:37;;;;;;;16.00;9.05;;;;;;;10.02;21.18;100950.56;4516239;31;34328;-67
2022/03/13 08:22:05;;;;;;;18.02;8.88;;;;;;;9.15;21.31;100949.13;4516069;31;35094;-67
2022/03/13 08:24:32;;;;;;;14.87;8.82;;;;;;;9.24;21.34;100937.88;4516354;31;33427;-67
2022/03/13 08:27:00;;;;;;;17.20;8.73;;;;;;;9.63;21.13;100943.38;4516302;31;33930;-67
2022/03/13 08:29:30;;;;;;;13.98;8.60;;;;;;;9.74;20.71;100948.16;4516290;31;33950;-67
2022/03/13 08:31:58;;;;;;;13.35;7.82;;;;;;;9.78;20.41;100946.69;4516187;31;33949;-67
2022/03/13 08:34:30;;;;;;;15.18;8.77;;;;;;;10.35;19.83;100949.56;4516186;31;34169;-67
2022/03/13 08:37:03;;;;;;;14.25;8.55;;;;;;;11.47;18.39;100943.44;4516641;31;33990;-68
2022/03/13 08:39:31;;;;;;;15.00;7.87;;;;;;;11.41;19.40;100937.00;4516614;31;34913;-64
2022/03/13 08:41:58;;;;;;;15.40;7.87;;;;;;;11.01;18.93;100939.25;4518187;31;34063;-64
2022/03/13 08:44:26;;;;;;;13.18;6.28;;;;;;;11.27;18.58;100941.75;4518397;31;33591;-62
2022/03/13 08:46:54;;;;;;;10.75;6.10;;;;;;;12.34;16.64;100940.50;4518038;31;34177;-62
2022/03/13 08:49:21;;;;;;;8.75;5.00;;;;;;;12.15;16.35;100936.16;4518137;31;35020;-63
2022/03/13 08:51:48;;;;;;;10.18;6.03;;;;;;;11.03;16.97;100937.16;4518294;31;33898;-62
2022/03/13 08:54:18;;;;;;;9.35;5.60;;;;;;;10.51;17.30;100936.53;4518197;31;34464;-63
2022/03/13 08:56:47;;;;;;;10.30;6.10;;;;;;;10.79;17.72;100938.81;4517866;31;33817;-66
2022/03/13 08:59:15;;;;;;;9.10;5.95;;;;;;;10.96;17.66;100931.78;4518006;31;34937;-67
2022/03/13 09:01:44;;;;;;;11.65;6.68;;;;;;;11.36;16.84;100936.00;4518204;31;34685;-66
2022/03/13 09:04:12;;;;;;;9.25;5.53;;;;;;;10.30;18.24;100935.81;4518107;31;33424;-67
2022/03/13 09:06:39;;;;;;;10.10;6.22;;;;;;;11.07;17.10;100932.94;4507590;31;33606;-63
2022/03/13 09:09:09;;;;;;;9.82;5.30;;;;;;;11.58;17.89;100931.81;4517538;31;33831;-65
2022/03/13 09:11:37;;;;;;;7.75;4.60;;;;;;;11.74;16.69;100933.06;4517820;31;33617;-68
2022/03/13 09:14:05;;;;;;;8.30;4.68;;;;;;;10.33;16.40;100929.13;4517887;31;32905;-65
2022/03/13 09:16:35;;;;;;;9.60;4.80;;;;;;;10.27;16.98;100926.19;4517852;31;34677;-65
2022/03/13 09:19:05;;;;;;;7.82;4.15;;;;;;;11.60;15.57;100935.13;4518038;31;35080;-66
2022/03/13 09:21:34;;;;;;;7.50;4.65;;;;;;;11.28;16.31;100923.56;4516935;31;33836;-66
2022/03/13 09:24:01;;;;;;;9.32;5.55;;;;;;;10.86;16.56;100917.88;4517813;31;34310;-65
2022/03/13 09:26:29;;;;;;;9.77;6.20;;;;;;;10.21;16.85;100926.25;4517750;31;33904;-66
2022/03/13 09:28:56;;;;;;;9.63;5.30;;;;;;;11.61;16.37;100922.38;4518001;31;35176;-66
2022/03/13 09:31:24;;;;;;;7.80;5.18;;;;;;;11.05;15.79;100918.75;4517371;31;33761;-68
2022/03/13 09:33:51;;;;;;;8.30;5.30;;;;;;;11.68;16.41;100920.38;4517879;31;34246;-64
2022/03/13 09:36:19;;;;;;;10.57;5.37;;;;;;;11.28;16.17;100921.66;4517494;31;34597;-65
2022/03/13 09:38:47;;;;;;;8.90;5.80;;;;;;;11.26;15.65;100918.34;4517422;31;33675;-65
2022/03/13 09:41:15;;;;;;;10.13;5.85;;;;;;;12.09;15.97;100918.84;4517911;31;32951;-66
2022/03/13 09:43:43;;;;;;;10.38;5.60;;;;;;;12.68;15.38;100910.88;4516257;31;33554;-67
2022/03/13 09:46:11;;;;;;;9.52;5.80;;;;;;;12.38;15.24;100919.09;4517571;31;34855;-65
2022/03/13 09:48:38;;;;;;;10.45;6.47;;;;;;;11.82;14.81;100918.34;4517583;31;35023;-65
2022/03/13 09:51:07;;;;;;;10.90;6.62;;;;;;;11.41;15.43;100920.69;4517435;31;34044;-64
2022/03/13 09:53:36;;;;;;;11.30;6.60;;;;;;;11.31;15.64;100914.13;4517466;31;33535;-63
2022/03/13 09:56:05;;;;;;;11.50;7.43;;;;;;;11.55;16.89;100902.34;4516459;31;33755;-64
2022/03/13 09:58:32;;;;;;;10.55;7.28;;;;;;;11.12;16.33;100896.97;4517721;31;34633;-65
2022/03/13 10:01:00;;;;;;;15.25;7.53;;;;;;;11.14;16.43;100884.00;4517553;31;33976;-65
2022/03/13 10:03:28;;;;;;;14.07;8.13;;;;;;;10.70;17.31;100883.97;4517514;31;33515;-64
2022/03/13 10:05:56;;;;;;;11.20;7.15;;;;;;;10.99;17.66;100896.06;4517266;31;33912;-63
2022/03/13 10:08:28;;;;;;;11.10;6.78;;;;;;;11.31;17.85;100895.94;4507767;31;34254;-66
2022/03/13 10:10:56;;;;;;;12.32;6.30;;;;;;;11.54;16.85;100900.69;4501712;31;34386;-65
2022/03/13 10:13:38;;;;;;;11.27;6.87;;;;;;;12.11;16.66;100884.09;4514177;31;33635;-64
2022/03/13 10:16:08;;;;;;;10.60;5.75;;;;;;;12.11;16.48;100884.91;4517507;31;34924;-67
2022/03/13 10:18:35;;;;;;;9.98;5.95;;;;;;;12.04;15.91;100888.81;4517317;31;35123;-63
2022/03/13 10:21:11;;;;;;;9.10;5.93;;;;;;;12.19;16.75;100880.22;4517119;31;33461;-67
2022/03/13 10:23:40;;;;;;;10.15;6.45;;;;;;;12.76;16.33;100888.72;4517523;31;33353;-69
2022/03/13 10:26:08;;;;;;;8.77;5.55;;;;;;;13.14;15.93;100884.72;4517266;31;33723;-68
2022/03/13 10:28:40;;;;;;;10.20;5.45;;;;;;;11.20;14.65;100886.62;4517141;31;35079;-66
2022/03/13 10:31:18;;;;;;;10.20;6.07;;;;;;;11.07;14.84;100874.03;4517477;31;34728;-62
2022/03/13 10:33:56;;;;;;;10.10;6.85;;;;;;;11.49;15.45;100884.25;4517599;31;34424;-70
2022/03/13 10:36:31;;;;;;;10.40;6.97;;;;;;;12.55;15.32;100881.13;4516446;31;33937;-70
2022/03/13 10:39:02;;;;;;;11.63;7.35;;;;;;;13.04;16.32;100879.84;4517296;31;34740;-71
2022/03/13 10:41:46;;;;;;;12.43;7.62;;;;;;;12.92;15.47;100879.88;4514659;31;33584;-66
2022/03/13 10:44:16;;;;;;;11.33;7.83;;;;;;;12.82;15.77;100871.47;4516986;31;34254;-67
2022/03/13 10:46:45;;;;;;;13.27;7.82;;;;;;;12.77;15.00;100868.63;4517352;31;34358;-67
2022/03/13 10:49:14;;;;;;;12.55;8.25;;;;;;;13.25;15.39;100867.53;4515901;31;34328;-66
2022/03/13 10:51:47;;;;;;;12.63;7.55;;;;;;;13.56;14.99;100868.19;4517162;31;33768;-66
2022/03/13 10:54:33;;;;;;;13.23;8.07;;;;;;;14.14;14.39;100869.06;4517164;31;34181;-66
2022/03/13 10:57:09;;;;;;;12.02;6.57;;;;;;;13.21;14.99;100868.25;4515694;31;33895;-69
2022/03/13 10:59:37;;;;;;;10.77;6.37;;;;;;;12.38;16.64;100854.59;4516327;31;34121;-69
2022/03/13 11:02:13;;;;;;;11.85;6.55;;;;;;;13.27;15.51;100856.41;4516634;31;34745;-69
2022/03/13 11:05:07;;;;;;;10.98;6.05;;;;;;;12.46;15.66;100856.12;4517268;31;33168;-68
2022/03/13 11:07:35;;;;;;;9.73;6.20;;;;;;;11.83;15.94;100863.72;4513304;31;33708;-68
2022/03/13 11:10:05;;;;;;;10.38;5.87;;;;;;;12.29;15.46;100856.84;4515015;31;34289;-63
2022/03/13 11:12:33;;;;;;;12.95;6.20;;;;;;;11.57;15.88;100853.19;4516823;31;33879;-63
2022/03/13 11:15:02;;;;;;;11.88;6.30;;;;;;;11.18;16.50;100855.31;4512299;31;34168;-65
2022/03/13 11:17:32;;;;;;;9.48;5.82;;;;;;;11.95;15.54;100849.41;4500030;31;34141;-69
2022/03/13 11:20:01;;;;;;;10.52;6.18;;;;;;;11.86;16.40;100846.97;4509279;31;33990;-69
2022/03/13 11:22:29;;;;;;;9.35;5.28;;;;;;;13.28;14.95;100841.69;4517075;31;34669;-70
2022/03/13 11:25:03;;;;;;;8.45;5.80;;;;;;;13.62;15.13;100831.78;4516589;31;33430;-67
2022/03/13 11:27:31;;;;;;;9.13;5.68;;;;;;;12.30;15.84;100833.16;4515931;31;33619;-69
2022/03/13 11:29:59;;;;;;;9.95;5.65;;;;;;;13.06;15.14;100838.75;4515060;31;34214;-67
2022/03/13 11:32:46;;;;;;;9.10;5.85;;;;;;;13.00;15.44;100837.84;4516875;31;33941;-66